Flight Track Log - Related Links

Times and Time Zones

All times are in EDT time to prevent confusion due to time zone crossing. See the CTL15 flight status page for this flight to view local times or setup timezone preferences in your user account.

Time Position Orientation Groundspeed Altitude Reporting Facility
EDT Latitude Longitude Course Direction KTS MPH feet Rate Location/Type
Mon 07:53:01 PM 39.6161 -84.2094 41° Northeast 124 143 3,400  Level Indianapolis Center
Mon 07:53:56 PM 39.6394 -84.1828 41° Northeast 131 151 4,300 1,029 Climbing Indianapolis Center
Mon 07:54:11 PM 39.6458 -84.1747 44° Northeast 124 143 4,600 1,000 Climbing Indianapolis Center
Mon 07:54:50 PM 39.6650 -84.1508 44° Northeast 135 155 5,200 984 Climbing Indianapolis Center
Mon 07:55:12 PM 39.6736 -84.1417 39° Northeast 130 150 5,600 929 Climbing Indianapolis Center
Mon 07:56:14 PM 39.7006 -84.1064 45° Northeast 134 154 6,500 840 Climbing Indianapolis Center
Mon 07:56:52 PM 39.7206 -84.0822 43° Northeast 142 163 7,000 393 Climbing Indianapolis Center
Mon 07:57:15 PM 39.7289 -84.0692 50° Northeast 138 159 6,900  Descending Indianapolis Center
Mon 07:57:58 PM 39.7578 -84.0356 42° Northeast 174 200 7,000 98 Climbing Indianapolis Center
Mon 07:58:16 PM 39.7639 -84.0258 51° Northeast 156 180 7,000  Level Indianapolis Center
Mon 07:58:53 PM 39.7881 -83.9961 43° Northeast 182 209 7,000  Level Indianapolis Center
Mon 07:59:18 PM 39.8008 -83.9789 46° Northeast 173 199 7,000  Level Indianapolis Center
Mon 08:00:00 PM 39.8300 -83.9417 44° Northeast 180 207 7,000  Level Indianapolis Center
Mon 08:00:19 PM 39.8367 -83.9322 47° Northeast 179 206 7,000  Level Indianapolis Center
Mon 08:01:00 PM 39.8650 -83.8944 46° Northeast 184 212 7,000  Level Indianapolis Center
Mon 08:01:21 PM 39.8733 -83.8847 42° Northeast 181 208 7,000  Level Indianapolis Center
Mon 08:02:01 PM 39.9017 -83.8503 43° Northeast 185 213 7,000 98 Level Indianapolis Center
Mon 08:02:22 PM 39.9106 -83.8369 49° Northeast 184 212 7,100  Climbing Indianapolis Center
Mon 08:03:02 PM 39.9367 -83.8031 45° Northeast 183 211 7,000 -97 Descending Indianapolis Center
Mon 08:03:24 PM 39.9483 -83.7894 42° Northeast 185 213 7,000 -125 Level Indianapolis Center
Mon 08:03:50 PM 39.9669 -83.7633 47° Northeast 184 212 6,900 -98 Descending Indianapolis Center
Mon 08:04:25 PM 39.9844 -83.7417 43° Northeast 184 212 6,900  Level Indianapolis Center
Mon 08:04:51 PM 40.0039 -83.7161 45° Northeast 182 209 6,900  Level Indianapolis Center
Mon 08:05:26 PM 40.0211 -83.6964 41° Northeast 181 208 6,900 90 Level Indianapolis Center
Mon 08:05:58 PM 40.0456 -83.6642 45° Northeast 181 208 7,000 97 Climbing Indianapolis Center
Mon 08:06:28 PM 40.0647 -83.6422 41° Northeast 182 209 7,000  Level Indianapolis Center
Mon 08:06:53 PM 40.0758 -83.6244 51° Northeast 183 211 7,000  Level Indianapolis Center
Mon 08:07:29 PM 40.1014 -83.5942 42° Northeast 183 211 7,000  Level Indianapolis Center
Mon 08:08:11 PM 40.1267 -83.5597 46° Northeast 185 213 7,000  Level Indianapolis Center
Mon 08:08:31 PM 40.1383 -83.5469 40° Northeast 183 211 7,000 -122 Level Indianapolis Center
Mon 08:09:00 PM 40.1564 -83.5253 43° Northeast 186 214 6,900 -98 Descending Indianapolis Center
Mon 08:09:32 PM 40.1761 -83.4986 46° Northeast 185 213 6,900  Level Indianapolis Center
Mon 08:10:01 PM 40.1933 -83.4781 42° Northeast 186 214 6,900  Level Indianapolis Center
Mon 08:10:33 PM 40.2139 -83.4506 46° Northeast 187 215 6,900 98 Level Indianapolis Center
Mon 08:11:02 PM 40.2300 -83.4306 43° Northeast 187 215 7,000  Climbing Indianapolis Center
Mon 08:11:35 PM 40.2486 -83.4019 50° Northeast 184 212 6,900 -98 Descending Indianapolis Center
Mon 08:12:03 PM 40.2675 -83.3778 44° Northeast 186 214 6,900 98 Level Indianapolis Center
Mon 08:12:36 PM 40.2856 -83.3528 47° Northeast 186 214 7,000 111 Climbing Indianapolis Center
Mon 08:12:57 PM 40.2994 -83.3378 39° Northeast 184 212 7,000 -97 Level Indianapolis Center
Mon 08:13:38 PM 40.3225 -83.3075 45° Northeast 182 209 6,900  Descending Indianapolis Center
Mon 08:14:39 PM 40.3572 -83.2567 48° Northeast 184 212 7,000 49 Climbing Indianapolis Center
Mon 08:15:40 PM 40.3919 -83.2069 47° Northeast 184 212 7,000 -49 Level Indianapolis Center
Mon 08:16:42 PM 40.4297 -83.1614 43° Northeast 183 211 6,900 -49 Descending Indianapolis Center
Mon 08:17:43 PM 40.4658 -83.1128 46° Northeast 185 213 6,900  Level Indianapolis Center
Mon 08:18:45 PM 40.5006 -83.0639 47° Northeast 182 209 6,900  Level Indianapolis Center
Mon 08:19:46 PM 40.5294 -83.0111 54° Northeast 179 206 6,900  Level Indianapolis Center
Mon 08:20:47 PM 40.5725 -82.9556 44° Northeast 184 212 6,900 -98 Level Indianapolis Center
Mon 08:21:49 PM 40.6133 -82.9131 38° Northeast 186 214 6,700 -341 Descending Indianapolis Center
Mon 08:22:50 PM 40.6456 -82.8553 54° Northeast 192 221 6,200 -537 Descending Indianapolis Center
Mon 08:23:52 PM 40.6714 -82.7919 62° Northeast 194 223 5,600 -634 Descending Indianapolis Center
Mon 08:24:53 PM 40.6989 -82.7303 60° Northeast 194 223 4,900 -390 Descending Indianapolis Center
Mon 08:25:55 PM 40.7258 -82.6711 59° Northeast 188 216 4,800 49 Descending Indianapolis Center
Mon 08:26:56 PM 40.7506 -82.6200 57° Northeast 170 196 5,000 197 Climbing Indianapolis Center

Login

Don't have an account? Register now (free) for customized features, flight alerts, and more!